Wagner, Minnesota
Current Conditions -  °F | °C
As of 7:44 AM on Wednesday 22 Oct 2014 (Local Time) from K04W Reporting Station
Clear Clear  
Wind Chill: 34°   Ceiling: Unl
Heat Index: 37°   Visibility: 10mi
Dew Point: 36°   Wind: 5mph
Humidity: 93%   Direction: 140°SE
Pressure: 30.2"   Gusts: NA
Location:  46.2114°N, 92.9743°W
Report Text: K04W 221244Z AUTO 14004KT 10SM CLR 03/02 A3020 RMK AO2
Loading
Personal Weather Stations






























Interactive Weather Map
Tropical Storm Tracking
New forecast layout! Learn more

10-Day Weather Forecast

Advertisements
Track Severe Weather on mobile